sensor_id;sensor_type;location;lat;lon;timestamp;P1;durP1;ratioP1;P2;durP2;ratioP2
12908;SDS011;6522;49.622;6.126;2023-04-05T00:00:58;15.25;;;14.05;;
12908;SDS011;6522;49.622;6.126;2023-04-05T00:03:45;14.43;;;13.30;;
12908;SDS011;6522;49.622;6.126;2023-04-05T00:06:32;15.82;;;14.82;;
12908;SDS011;6522;49.622;6.126;2023-04-05T00:09:18;13.62;;;12.60;;
12908;SDS011;6522;49.622;6.126;2023-04-05T00:12:04;14.18;;;13.27;;
12908;SDS011;6522;49.622;6.126;2023-04-05T00:14:51;14.50;;;13.60;;
12908;SDS011;6522;49.622;6.126;2023-04-05T00:17:38;14.07;;;13.27;;
12908;SDS011;6522;49.622;6.126;2023-04-05T00:20:25;13.65;;;12.82;;
12908;SDS011;6522;49.622;6.126;2023-04-05T00:23:12;13.43;;;12.57;;
12908;SDS011;6522;49.622;6.126;2023-04-05T00:25:58;17.10;;;15.82;;
12908;SDS011;6522;49.622;6.126;2023-04-05T00:28:46;13.90;;;13.00;;
12908;SDS011;6522;49.622;6.126;2023-04-05T00:31:32;14.70;;;13.80;;
12908;SDS011;6522;49.622;6.126;2023-04-05T00:34:19;13.52;;;12.50;;
12908;SDS011;6522;49.622;6.126;2023-04-05T00:37:05;13.15;;;12.35;;
12908;SDS011;6522;49.622;6.126;2023-04-05T00:39:52;12.52;;;11.73;;
12908;SDS011;6522;49.622;6.126;2023-04-05T00:42:39;14.82;;;13.52;;
12908;SDS011;6522;49.622;6.126;2023-04-05T00:45:26;12.15;;;11.35;;
12908;SDS011;6522;49.622;6.126;2023-04-05T00:48:12;12.82;;;12.00;;
12908;SDS011;6522;49.622;6.126;2023-04-05T00:50:59;13.57;;;12.50;;
12908;SDS011;6522;49.622;6.126;2023-04-05T00:53:47;14.40;;;13.35;;
12908;SDS011;6522;49.622;6.126;2023-04-05T00:56:34;12.00;;;11.20;;
12908;SDS011;6522;49.622;6.126;2023-04-05T00:59:20;12.32;;;11.35;;
12908;SDS011;6522;49.622;6.126;2023-04-05T01:02:24;11.27;;;10.18;;
12908;SDS011;6522;49.622;6.126;2023-04-05T01:05:11;11.90;;;10.93;;
12908;SDS011;6522;49.622;6.126;2023-04-05T01:08:06;11.77;;;10.80;;
12908;SDS011;6522;49.622;6.126;2023-04-05T01:10:50;8.25;;;7.55;;
12908;SDS011;6522;49.622;6.126;2023-04-05T01:13:36;12.37;;;11.18;;
12908;SDS011;6522;49.622;6.126;2023-04-05T01:16:23;7.80;;;7.18;;
12908;SDS011;6522;49.622;6.126;2023-04-05T01:19:10;9.85;;;8.90;;
12908;SDS011;6522;49.622;6.126;2023-04-05T01:24:51;12.20;;;11.30;;
12908;SDS011;6522;49.622;6.126;2023-04-05T01:30:42;11.77;;;11.00;;
12908;SDS011;6522;49.622;6.126;2023-04-05T01:33:14;12.48;;;11.50;;
12908;SDS011;6522;49.622;6.126;2023-04-05T01:36:13;12.57;;;11.68;;
12908;SDS011;6522;49.622;6.126;2023-04-05T01:38:56;14.23;;;13.27;;
12908;SDS011;6522;49.622;6.126;2023-04-05T01:41:43;7.50;;;6.80;;
12908;SDS011;6522;49.622;6.126;2023-04-05T01:44:29;10.27;;;9.02;;
12908;SDS011;6522;49.622;6.126;2023-04-05T01:47:16;10.85;;;10.00;;
12908;SDS011;6522;49.622;6.126;2023-04-05T01:50:03;10.10;;;9.20;;
12908;SDS011;6522;49.622;6.126;2023-04-05T01:52:50;11.77;;;10.93;;
12908;SDS011;6522;49.622;6.126;2023-04-05T01:55:37;8.38;;;7.57;;
12908;SDS011;6522;49.622;6.126;2023-04-05T01:58:24;11.88;;;10.98;;
12908;SDS011;6522;49.622;6.126;2023-04-05T02:01:11;11.57;;;10.77;;
12908;SDS011;6522;49.622;6.126;2023-04-05T02:03:58;13.00;;;12.10;;
12908;SDS011;6522;49.622;6.126;2023-04-05T02:06:44;8.15;;;7.18;;
12908;SDS011;6522;49.622;6.126;2023-04-05T02:09:31;9.45;;;8.45;;
12908;SDS011;6522;49.622;6.126;2023-04-05T02:12:18;9.40;;;8.07;;
12908;SDS011;6522;49.622;6.126;2023-04-05T02:15:05;11.00;;;10.20;;
12908;SDS011;6522;49.622;6.126;2023-04-05T02:17:52;12.52;;;11.50;;
12908;SDS011;6522;49.622;6.126;2023-04-05T02:20:39;14.18;;;12.95;;
12908;SDS011;6522;49.622;6.126;2023-04-05T02:23:25;8.88;;;8.07;;
12908;SDS011;6522;49.622;6.126;2023-04-05T02:26:12;12.20;;;11.30;;
12908;SDS011;6522;49.622;6.126;2023-04-05T02:28:59;15.95;;;14.63;;
12908;SDS011;6522;49.622;6.126;2023-04-05T02:31:45;13.85;;;12.95;;
12908;SDS011;6522;49.622;6.126;2023-04-05T02:34:32;10.98;;;10.18;;
12908;SDS011;6522;49.622;6.126;2023-04-05T02:37:19;13.25;;;12.25;;
12908;SDS011;6522;49.622;6.126;2023-04-05T02:40:05;11.00;;;10.10;;
12908;SDS011;6522;49.622;6.126;2023-04-05T02:42:52;11.70;;;10.80;;
12908;SDS011;6522;49.622;6.126;2023-04-05T02:45:39;15.63;;;14.52;;
12908;SDS011;6522;49.622;6.126;2023-04-05T02:48:26;17.35;;;16.23;;
12908;SDS011;6522;49.622;6.126;2023-04-05T02:51:13;9.05;;;8.15;;
12908;SDS011;6522;49.622;6.126;2023-04-05T02:54:01;13.38;;;12.18;;
12908;SDS011;6522;49.622;6.126;2023-04-05T02:56:47;13.82;;;12.82;;
12908;SDS011;6522;49.622;6.126;2023-04-05T02:59:33;12.75;;;11.75;;
12908;SDS011;6522;49.622;6.126;2023-04-05T03:02:20;13.27;;;12.18;;
12908;SDS011;6522;49.622;6.126;2023-04-05T03:05:07;10.80;;;9.98;;
12908;SDS011;6522;49.622;6.126;2023-04-05T03:07:54;12.80;;;11.88;;
12908;SDS011;6522;49.622;6.126;2023-04-05T03:10:41;11.43;;;9.73;;
12908;SDS011;6522;49.622;6.126;2023-04-05T03:13:28;12.55;;;11.45;;
12908;SDS011;6522;49.622;6.126;2023-04-05T03:16:14;11.50;;;10.40;;
12908;SDS011;6522;49.622;6.126;2023-04-05T03:19:01;12.30;;;11.30;;
12908;SDS011;6522;49.622;6.126;2023-04-05T03:21:48;12.40;;;11.50;;
12908;SDS011;6522;49.622;6.126;2023-04-05T03:24:34;8.93;;;6.80;;
12908;SDS011;6522;49.622;6.126;2023-04-05T03:27:21;12.48;;;11.38;;
12908;SDS011;6522;49.622;6.126;2023-04-05T03:30:08;12.23;;;11.23;;
12908;SDS011;6522;49.622;6.126;2023-04-05T03:32:55;15.05;;;13.85;;
12908;SDS011;6522;49.622;6.126;2023-04-05T03:35:42;13.00;;;12.00;;
12908;SDS011;6522;49.622;6.126;2023-04-05T03:38:29;12.90;;;12.00;;
12908;SDS011;6522;49.622;6.126;2023-04-05T03:41:15;12.68;;;11.65;;
12908;SDS011;6522;49.622;6.126;2023-04-05T03:44:02;7.90;;;6.85;;
12908;SDS011;6522;49.622;6.126;2023-04-05T03:46:49;11.85;;;10.60;;
12908;SDS011;6522;49.622;6.126;2023-04-05T03:49:35;13.27;;;12.18;;
12908;SDS011;6522;49.622;6.126;2023-04-05T03:52:22;8.45;;;7.35;;
12908;SDS011;6522;49.622;6.126;2023-04-05T03:55:09;12.25;;;11.45;;
12908;SDS011;6522;49.622;6.126;2023-04-05T03:57:55;13.07;;;11.70;;
12908;SDS011;6522;49.622;6.126;2023-04-05T04:00:42;15.23;;;13.93;;
12908;SDS011;6522;49.622;6.126;2023-04-05T04:03:29;14.38;;;13.25;;
12908;SDS011;6522;49.622;6.126;2023-04-05T04:06:16;13.70;;;12.70;;
12908;SDS011;6522;49.622;6.126;2023-04-05T04:09:02;12.02;;;11.02;;
12908;SDS011;6522;49.622;6.126;2023-04-05T04:11:49;13.57;;;12.57;;
12908;SDS011;6522;49.622;6.126;2023-04-05T04:14:36;13.20;;;12.18;;
12908;SDS011;6522;49.622;6.126;2023-04-05T04:17:26;13.02;;;12.02;;
12908;SDS011;6522;49.622;6.126;2023-04-05T04:20:12;13.10;;;11.98;;
12908;SDS011;6522;49.622;6.126;2023-04-05T04:22:59;13.82;;;12.63;;
12908;SDS011;6522;49.622;6.126;2023-04-05T04:25:48;8.82;;;7.22;;
12908;SDS011;6522;49.622;6.126;2023-04-05T04:28:32;12.48;;;11.40;;
12908;SDS011;6522;49.622;6.126;2023-04-05T04:31:19;12.85;;;11.77;;
12908;SDS011;6522;49.622;6.126;2023-04-05T04:34:09;11.90;;;10.90;;
12908;SDS011;6522;49.622;6.126;2023-04-05T04:36:56;12.63;;;11.50;;
12908;SDS011;6522;49.622;6.126;2023-04-05T04:39:46;11.00;;;8.40;;
12908;SDS011;6522;49.622;6.126;2023-04-05T04:42:29;13.75;;;12.35;;
12908;SDS011;6522;49.622;6.126;2023-04-05T04:45:17;13.68;;;12.60;;
12908;SDS011;6522;49.622;6.126;2023-04-05T04:48:03;14.25;;;12.98;;
12908;SDS011;6522;49.622;6.126;2023-04-05T04:50:50;11.85;;;10.65;;
12908;SDS011;6522;49.622;6.126;2023-04-05T04:53:37;12.95;;;11.15;;
12908;SDS011;6522;49.622;6.126;2023-04-05T04:56:24;13.85;;;12.70;;
12908;SDS011;6522;49.622;6.126;2023-04-05T04:59:11;14.85;;;13.35;;
12908;SDS011;6522;49.622;6.126;2023-04-05T05:01:58;14.20;;;12.75;;
12908;SDS011;6522;49.622;6.126;2023-04-05T05:04:45;16.17;;;14.52;;
12908;SDS011;6522;49.622;6.126;2023-04-05T05:07:31;15.63;;;14.35;;
12908;SDS011;6522;49.622;6.126;2023-04-05T05:10:19;13.40;;;12.10;;
12908;SDS011;6522;49.622;6.126;2023-04-05T05:13:05;14.07;;;12.70;;
12908;SDS011;6522;49.622;6.126;2023-04-05T05:15:52;15.57;;;14.30;;
12908;SDS011;6522;49.622;6.126;2023-04-05T05:18:39;13.68;;;12.57;;
12908;SDS011;6522;49.622;6.126;2023-04-05T05:21:25;13.23;;;11.98;;
12908;SDS011;6522;49.622;6.126;2023-04-05T05:24:12;16.15;;;14.75;;
12908;SDS011;6522;49.622;6.126;2023-04-05T05:26:59;12.13;;;9.07;;
12908;SDS011;6522;49.622;6.126;2023-04-05T05:29:45;14.35;;;13.15;;
12908;SDS011;6522;49.622;6.126;2023-04-05T05:32:32;13.70;;;12.48;;
12908;SDS011;6522;49.622;6.126;2023-04-05T05:35:18;11.75;;;10.65;;
12908;SDS011;6522;49.622;6.126;2023-04-05T05:38:05;15.93;;;14.40;;
12908;SDS011;6522;49.622;6.126;2023-04-05T05:40:55;13.73;;;12.52;;
12908;SDS011;6522;49.622;6.126;2023-04-05T05:43:42;14.05;;;12.82;;
12908;SDS011;6522;49.622;6.126;2023-04-05T05:46:29;15.50;;;14.25;;
12908;SDS011;6522;49.622;6.126;2023-04-05T05:49:15;17.17;;;12.57;;
12908;SDS011;6522;49.622;6.126;2023-04-05T05:52:02;13.98;;;12.77;;
12908;SDS011;6522;49.622;6.126;2023-04-05T05:54:49;13.93;;;12.68;;
12908;SDS011;6522;49.622;6.126;2023-04-05T05:57:36;13.52;;;12.23;;
12908;SDS011;6522;49.622;6.126;2023-04-05T06:00:22;10.10;;;7.50;;
12908;SDS011;6522;49.622;6.126;2023-04-05T06:03:09;15.05;;;13.40;;
12908;SDS011;6522;49.622;6.126;2023-04-05T06:05:56;11.68;;;9.50;;
12908;SDS011;6522;49.622;6.126;2023-04-05T06:08:42;16.15;;;14.80;;
12908;SDS011;6522;49.622;6.126;2023-04-05T06:11:29;14.87;;;13.68;;
12908;SDS011;6522;49.622;6.126;2023-04-05T06:14:16;15.48;;;14.18;;
12908;SDS011;6522;49.622;6.126;2023-04-05T06:17:02;21.87;;;16.10;;
12908;SDS011;6522;49.622;6.126;2023-04-05T06:19:49;15.02;;;13.52;;
12908;SDS011;6522;49.622;6.126;2023-04-05T06:22:39;17.92;;;16.58;;
12908;SDS011;6522;49.622;6.126;2023-04-05T06:25:25;12.60;;;10.18;;
12908;SDS011;6522;49.622;6.126;2023-04-05T06:28:12;15.20;;;13.80;;
12908;SDS011;6522;49.622;6.126;2023-04-05T06:30:59;15.70;;;14.20;;
12908;SDS011;6522;49.622;6.126;2023-04-05T06:33:46;15.10;;;13.70;;
12908;SDS011;6522;49.622;6.126;2023-04-05T06:36:33;14.80;;;13.52;;
12908;SDS011;6522;49.622;6.126;2023-04-05T06:39:19;14.02;;;12.80;;
12908;SDS011;6522;49.622;6.126;2023-04-05T06:42:06;15.18;;;13.95;;
12908;SDS011;6522;49.622;6.126;2023-04-05T06:44:53;15.18;;;13.75;;
12908;SDS011;6522;49.622;6.126;2023-04-05T06:47:40;16.75;;;15.27;;
12908;SDS011;6522;49.622;6.126;2023-04-05T06:50:27;16.20;;;14.60;;
12908;SDS011;6522;49.622;6.126;2023-04-05T06:53:14;16.60;;;15.05;;
12908;SDS011;6522;49.622;6.126;2023-04-05T06:56:00;15.40;;;12.93;;
12908;SDS011;6522;49.622;6.126;2023-04-05T06:58:47;16.27;;;15.02;;
12908;SDS011;6522;49.622;6.126;2023-04-05T07:01:34;18.08;;;16.58;;
12908;SDS011;6522;49.622;6.126;2023-04-05T07:04:20;16.00;;;14.50;;
12908;SDS011;6522;49.622;6.126;2023-04-05T07:07:08;15.15;;;13.75;;
12908;SDS011;6522;49.622;6.126;2023-04-05T07:09:54;14.10;;;12.80;;
12908;SDS011;6522;49.622;6.126;2023-04-05T07:12:41;16.20;;;14.77;;
12908;SDS011;6522;49.622;6.126;2023-04-05T07:15:28;15.32;;;14.02;;
12908;SDS011;6522;49.622;6.126;2023-04-05T07:18:15;14.85;;;13.65;;
12908;SDS011;6522;49.622;6.126;2023-04-05T07:21:02;16.83;;;14.00;;
12908;SDS011;6522;49.622;6.126;2023-04-05T07:23:49;13.82;;;12.60;;
12908;SDS011;6522;49.622;6.126;2023-04-05T07:26:35;15.50;;;14.00;;
12908;SDS011;6522;49.622;6.126;2023-04-05T07:29:22;15.02;;;13.95;;
12908;SDS011;6522;49.622;6.126;2023-04-05T07:32:09;17.15;;;15.65;;
12908;SDS011;6522;49.622;6.126;2023-04-05T07:34:55;17.62;;;16.42;;
12908;SDS011;6522;49.622;6.126;2023-04-05T07:37:42;15.95;;;14.57;;
12908;SDS011;6522;49.622;6.126;2023-04-05T07:40:29;18.12;;;16.83;;
12908;SDS011;6522;49.622;6.126;2023-04-05T07:43:17;19.37;;;18.17;;
12908;SDS011;6522;49.622;6.126;2023-04-05T07:46:02;17.50;;;16.10;;
12908;SDS011;6522;49.622;6.126;2023-04-05T07:48:49;19.30;;;17.80;;
12908;SDS011;6522;49.622;6.126;2023-04-05T07:51:36;18.95;;;17.55;;
12908;SDS011;6522;49.622;6.126;2023-04-05T07:54:22;22.02;;;20.73;;
12908;SDS011;6522;49.622;6.126;2023-04-05T07:57:10;20.88;;;19.67;;
12908;SDS011;6522;49.622;6.126;2023-04-05T07:59:56;19.10;;;17.80;;
12908;SDS011;6522;49.622;6.126;2023-04-05T08:02:43;20.50;;;19.37;;
12908;SDS011;6522;49.622;6.126;2023-04-05T08:05:29;24.90;;;23.23;;
12908;SDS011;6522;49.622;6.126;2023-04-05T08:08:16;21.83;;;20.62;;
12908;SDS011;6522;49.622;6.126;2023-04-05T08:11:03;23.70;;;22.20;;
12908;SDS011;6522;49.622;6.126;2023-04-05T08:13:50;25.15;;;23.70;;
12908;SDS011;6522;49.622;6.126;2023-04-05T08:16:36;21.90;;;20.30;;
12908;SDS011;6522;49.622;6.126;2023-04-05T08:19:23;24.90;;;23.17;;
12908;SDS011;6522;49.622;6.126;2023-04-05T08:22:10;25.08;;;23.27;;
12908;SDS011;6522;49.622;6.126;2023-04-05T08:24:56;22.67;;;21.42;;
12908;SDS011;6522;49.622;6.126;2023-04-05T08:27:43;24.80;;;23.05;;
12908;SDS011;6522;49.622;6.126;2023-04-05T08:30:30;25.42;;;23.83;;
12908;SDS011;6522;49.622;6.126;2023-04-05T08:33:17;24.63;;;22.98;;
12908;SDS011;6522;49.622;6.126;2023-04-05T08:36:04;25.92;;;24.23;;
12908;SDS011;6522;49.622;6.126;2023-04-05T08:38:50;25.55;;;23.95;;
12908;SDS011;6522;49.622;6.126;2023-04-05T08:41:39;26.75;;;24.48;;
12908;SDS011;6522;49.622;6.126;2023-04-05T08:44:24;25.50;;;23.65;;
12908;SDS011;6522;49.622;6.126;2023-04-05T08:47:10;24.75;;;23.17;;
12908;SDS011;6522;49.622;6.126;2023-04-05T08:49:57;27.30;;;25.60;;
12908;SDS011;6522;49.622;6.126;2023-04-05T08:52:44;28.25;;;26.25;;
12908;SDS011;6522;49.622;6.126;2023-04-05T08:55:30;23.12;;;21.83;;
12908;SDS011;6522;49.622;6.126;2023-04-05T08:58:17;23.60;;;22.30;;
12908;SDS011;6522;49.622;6.126;2023-04-05T09:01:04;23.17;;;21.52;;
12908;SDS011;6522;49.622;6.126;2023-04-05T09:03:50;25.77;;;24.25;;
12908;SDS011;6522;49.622;6.126;2023-04-05T09:06:37;26.37;;;24.87;;
12908;SDS011;6522;49.622;6.126;2023-04-05T09:09:24;25.37;;;23.87;;
12908;SDS011;6522;49.622;6.126;2023-04-05T09:12:10;25.80;;;24.35;;
12908;SDS011;6522;49.622;6.126;2023-04-05T09:14:58;28.38;;;26.60;;
12908;SDS011;6522;49.622;6.126;2023-04-05T09:17:44;27.00;;;25.30;;
12908;SDS011;6522;49.622;6.126;2023-04-05T09:20:30;26.23;;;24.67;;
12908;SDS011;6522;49.622;6.126;2023-04-05T09:23:17;29.35;;;27.45;;
12908;SDS011;6522;49.622;6.126;2023-04-05T09:26:20;27.80;;;26.13;;
12908;SDS011;6522;49.622;6.126;2023-04-05T09:29:06;26.30;;;24.60;;
12908;SDS011;6522;49.622;6.126;2023-04-05T09:31:52;27.87;;;26.17;;
12908;SDS011;6522;49.622;6.126;2023-04-05T09:34:40;24.12;;;22.73;;
12908;SDS011;6522;49.622;6.126;2023-04-05T09:37:26;27.80;;;26.13;;
12908;SDS011;6522;49.622;6.126;2023-04-05T09:40:12;24.30;;;22.80;;
12908;SDS011;6522;49.622;6.126;2023-04-05T09:42:59;26.80;;;25.30;;
12908;SDS011;6522;49.622;6.126;2023-04-05T09:45:46;27.73;;;26.00;;
12908;SDS011;6522;49.622;6.126;2023-04-05T09:51:34;23.80;;;22.10;;
12908;SDS011;6522;49.622;6.126;2023-04-05T09:54:18;27.10;;;25.30;;
12908;SDS011;6522;49.622;6.126;2023-04-05T09:57:05;22.73;;;21.33;;
12908;SDS011;6522;49.622;6.126;2023-04-05T09:59:52;23.02;;;21.52;;
12908;SDS011;6522;49.622;6.126;2023-04-05T10:02:38;24.53;;;23.13;;
12908;SDS011;6522;49.622;6.126;2023-04-05T10:05:26;25.50;;;23.97;;
12908;SDS011;6522;49.622;6.126;2023-04-05T10:08:13;25.40;;;23.90;;
12908;SDS011;6522;49.622;6.126;2023-04-05T10:10:59;25.10;;;23.80;;
12908;SDS011;6522;49.622;6.126;2023-04-05T10:13:46;26.67;;;25.33;;
12908;SDS011;6522;49.622;6.126;2023-04-05T10:16:35;26.67;;;25.27;;
12908;SDS011;6522;49.622;6.126;2023-04-05T10:19:27;27.50;;;25.90;;
12908;SDS011;6522;49.622;6.126;2023-04-05T10:22:11;26.70;;;25.40;;
12908;SDS011;6522;49.622;6.126;2023-04-05T10:25:42;24.17;;;22.77;;
12908;SDS011;6522;49.622;6.126;2023-04-05T10:27:46;26.63;;;24.93;;
12908;SDS011;6522;49.622;6.126;2023-04-05T10:30:34;26.40;;;25.10;;
12908;SDS011;6522;49.622;6.126;2023-04-05T10:33:29;28.50;;;26.80;;
12908;SDS011;6522;49.622;6.126;2023-04-05T10:39:04;27.47;;;25.77;;
12908;SDS011;6522;49.622;6.126;2023-04-05T10:41:53;28.50;;;26.60;;
12908;SDS011;6522;49.622;6.126;2023-04-05T10:44:39;28.80;;;27.10;;
12908;SDS011;6522;49.622;6.126;2023-04-05T10:47:27;24.40;;;22.98;;
12908;SDS011;6522;49.622;6.126;2023-04-05T10:50:20;27.90;;;26.40;;
12908;SDS011;6522;49.622;6.126;2023-04-05T10:53:04;25.25;;;23.75;;
12908;SDS011;6522;49.622;6.126;2023-04-05T10:55:51;25.92;;;24.33;;
12908;SDS011;6522;49.622;6.126;2023-04-05T10:58:37;27.33;;;25.57;;
12908;SDS011;6522;49.622;6.126;2023-04-05T11:01:24;24.67;;;23.03;;
12908;SDS011;6522;49.622;6.126;2023-04-05T11:04:11;27.30;;;25.60;;
12908;SDS011;6522;49.622;6.126;2023-04-05T11:07:11;25.80;;;24.50;;
12908;SDS011;6522;49.622;6.126;2023-04-05T11:15:34;26.27;;;24.20;;
12908;SDS011;6522;49.622;6.126;2023-04-05T11:18:21;24.67;;;23.23;;
12908;SDS011;6522;49.622;6.126;2023-04-05T11:21:08;22.60;;;21.20;;
12908;SDS011;6522;49.622;6.126;2023-04-05T11:24:01;22.40;;;21.00;;
12908;SDS011;6522;49.622;6.126;2023-04-05T11:29:47;24.60;;;23.30;;
12908;SDS011;6522;49.622;6.126;2023-04-05T11:32:43;26.00;;;24.50;;
12908;SDS011;6522;49.622;6.126;2023-04-05T11:35:27;26.30;;;24.77;;
12908;SDS011;6522;49.622;6.126;2023-04-05T11:38:20;22.95;;;21.55;;
12908;SDS011;6522;49.622;6.126;2023-04-05T11:41:10;22.60;;;21.20;;
12908;SDS011;6522;49.622;6.126;2023-04-05T11:43:53;24.93;;;23.63;;
12908;SDS011;6522;49.622;6.126;2023-04-05T11:46:40;21.93;;;20.63;;
12908;SDS011;6522;49.622;6.126;2023-04-05T11:49:26;22.62;;;21.12;;
12908;SDS011;6522;49.622;6.126;2023-04-05T11:52:14;25.23;;;23.83;;
12908;SDS011;6522;49.622;6.126;2023-04-05T11:55:00;22.17;;;20.70;;
12908;SDS011;6522;49.622;6.126;2023-04-05T11:57:51;23.20;;;21.80;;
12908;SDS011;6522;49.622;6.126;2023-04-05T12:00:34;27.20;;;25.70;;
12908;SDS011;6522;49.622;6.126;2023-04-05T12:03:21;22.70;;;21.30;;
12908;SDS011;6522;49.622;6.126;2023-04-05T12:06:08;25.13;;;23.40;;
12908;SDS011;6522;49.622;6.126;2023-04-05T12:08:54;24.47;;;23.20;;
12908;SDS011;6522;49.622;6.126;2023-04-05T12:11:41;23.12;;;21.75;;
12908;SDS011;6522;49.622;6.126;2023-04-05T12:14:28;26.33;;;24.97;;
12908;SDS011;6522;49.622;6.126;2023-04-05T12:17:15;23.53;;;22.13;;
12908;SDS011;6522;49.622;6.126;2023-04-05T12:20:01;22.80;;;21.30;;
12908;SDS011;6522;49.622;6.126;2023-04-05T12:22:48;25.57;;;23.90;;
12908;SDS011;6522;49.622;6.126;2023-04-05T12:25:34;22.00;;;20.67;;
12908;SDS011;6522;49.622;6.126;2023-04-05T12:28:21;22.95;;;21.40;;
12908;SDS011;6522;49.622;6.126;2023-04-05T12:31:09;27.87;;;26.20;;
12908;SDS011;6522;49.622;6.126;2023-04-05T12:33:57;23.87;;;22.42;;
12908;SDS011;6522;49.622;6.126;2023-04-05T12:36:42;24.05;;;22.35;;
12908;SDS011;6522;49.622;6.126;2023-04-05T12:39:29;26.83;;;25.23;;
12908;SDS011;6522;49.622;6.126;2023-04-05T12:42:18;22.50;;;21.20;;
12908;SDS011;6522;49.622;6.126;2023-04-05T12:45:06;25.30;;;24.00;;
12908;SDS011;6522;49.622;6.126;2023-04-05T12:47:56;22.45;;;20.92;;
12908;SDS011;6522;49.622;6.126;2023-04-05T12:50:43;21.93;;;20.63;;
12908;SDS011;6522;49.622;6.126;2023-04-05T12:53:29;21.75;;;20.45;;
12908;SDS011;6522;49.622;6.126;2023-04-05T12:56:16;21.80;;;20.50;;
12908;SDS011;6522;49.622;6.126;2023-04-05T12:59:03;21.20;;;19.90;;
12908;SDS011;6522;49.622;6.126;2023-04-05T13:01:49;24.97;;;23.53;;
12908;SDS011;6522;49.622;6.126;2023-04-05T13:04:36;26.67;;;25.13;;
12908;SDS011;6522;49.622;6.126;2023-04-05T13:07:23;28.00;;;26.33;;
12908;SDS011;6522;49.622;6.126;2023-04-05T13:10:09;26.67;;;25.27;;
12908;SDS011;6522;49.622;6.126;2023-04-05T13:12:56;27.47;;;26.07;;
12908;SDS011;6522;49.622;6.126;2023-04-05T13:15:43;24.57;;;23.27;;
12908;SDS011;6522;49.622;6.126;2023-04-05T13:18:30;26.80;;;25.20;;
12908;SDS011;6522;49.622;6.126;2023-04-05T13:21:17;25.17;;;23.77;;
12908;SDS011;6522;49.622;6.126;2023-04-05T13:24:04;24.97;;;23.47;;
12908;SDS011;6522;49.622;6.126;2023-04-05T13:26:51;23.90;;;22.70;;
12908;SDS011;6522;49.622;6.126;2023-04-05T13:29:38;25.47;;;23.97;;
12908;SDS011;6522;49.622;6.126;2023-04-05T13:32:25;22.30;;;20.80;;
12908;SDS011;6522;49.622;6.126;2023-04-05T13:35:12;22.42;;;20.90;;
12908;SDS011;6522;49.622;6.126;2023-04-05T13:37:58;26.27;;;24.60;;
12908;SDS011;6522;49.622;6.126;2023-04-05T13:40:45;21.87;;;20.63;;
12908;SDS011;6522;49.622;6.126;2023-04-05T13:43:32;22.90;;;21.27;;
12908;SDS011;6522;49.622;6.126;2023-04-05T13:46:18;25.40;;;24.00;;
12908;SDS011;6522;49.622;6.126;2023-04-05T13:49:05;21.70;;;20.37;;
12908;SDS011;6522;49.622;6.126;2023-04-05T13:51:52;24.80;;;23.50;;
12908;SDS011;6522;49.622;6.126;2023-04-05T13:54:39;22.13;;;20.83;;
12908;SDS011;6522;49.622;6.126;2023-04-05T13:57:26;22.20;;;20.80;;
12908;SDS011;6522;49.622;6.126;2023-04-05T14:00:13;24.87;;;23.57;;
12908;SDS011;6522;49.622;6.126;2023-04-05T14:03:00;22.02;;;20.70;;
12908;SDS011;6522;49.622;6.126;2023-04-05T14:05:47;21.98;;;20.67;;
12908;SDS011;6522;49.622;6.126;2023-04-05T14:08:33;24.70;;;23.30;;
12908;SDS011;6522;49.622;6.126;2023-04-05T14:11:20;22.98;;;21.50;;
12908;SDS011;6522;49.622;6.126;2023-04-05T14:14:10;22.13;;;20.62;;
12908;SDS011;6522;49.622;6.126;2023-04-05T14:16:57;24.50;;;23.10;;
12908;SDS011;6522;49.622;6.126;2023-04-05T14:19:44;21.80;;;20.45;;
12908;SDS011;6522;49.622;6.126;2023-04-05T14:22:31;21.83;;;20.42;;
12908;SDS011;6522;49.622;6.126;2023-04-05T14:25:17;23.87;;;22.60;;
12908;SDS011;6522;49.622;6.126;2023-04-05T14:28:05;21.70;;;20.40;;
12908;SDS011;6522;49.622;6.126;2023-04-05T14:30:51;24.20;;;22.80;;
12908;SDS011;6522;49.622;6.126;2023-04-05T14:33:38;24.73;;;23.33;;
12908;SDS011;6522;49.622;6.126;2023-04-05T14:36:25;24.53;;;23.10;;
12908;SDS011;6522;49.622;6.126;2023-04-05T14:39:12;23.60;;;22.30;;
12908;SDS011;6522;49.622;6.126;2023-04-05T14:41:59;24.00;;;22.70;;
12908;SDS011;6522;49.622;6.126;2023-04-05T14:44:46;22.23;;;20.83;;
12908;SDS011;6522;49.622;6.126;2023-04-05T14:47:33;23.83;;;22.43;;
12908;SDS011;6522;49.622;6.126;2023-04-05T14:50:20;25.03;;;23.73;;
12908;SDS011;6522;49.622;6.126;2023-04-05T14:53:07;25.33;;;23.83;;
12908;SDS011;6522;49.622;6.126;2023-04-05T14:55:53;21.35;;;20.12;;
12908;SDS011;6522;49.622;6.126;2023-04-05T14:58:40;22.40;;;21.20;;
12908;SDS011;6522;49.622;6.126;2023-04-05T15:01:27;25.40;;;23.80;;
12908;SDS011;6522;49.622;6.126;2023-04-05T15:04:14;22.17;;;20.88;;
12908;SDS011;6522;49.622;6.126;2023-04-05T15:07:00;22.00;;;20.70;;
12908;SDS011;6522;49.622;6.126;2023-04-05T15:09:47;25.50;;;24.10;;
12908;SDS011;6522;49.622;6.126;2023-04-05T15:12:34;22.10;;;20.80;;
12908;SDS011;6522;49.622;6.126;2023-04-05T15:15:20;21.50;;;20.20;;
12908;SDS011;6522;49.622;6.126;2023-04-05T15:18:07;25.03;;;23.63;;
12908;SDS011;6522;49.622;6.126;2023-04-05T15:20:53;21.77;;;20.58;;
12908;SDS011;6522;49.622;6.126;2023-04-05T15:23:40;21.93;;;20.43;;
12908;SDS011;6522;49.622;6.126;2023-04-05T15:26:27;26.17;;;24.57;;
12908;SDS011;6522;49.622;6.126;2023-04-05T15:29:14;22.77;;;21.40;;
12908;SDS011;6522;49.622;6.126;2023-04-05T15:32:01;22.75;;;21.35;;
12908;SDS011;6522;49.622;6.126;2023-04-05T15:34:48;27.00;;;25.33;;
12908;SDS011;6522;49.622;6.126;2023-04-05T15:37:35;24.40;;;22.50;;
12908;SDS011;6522;49.622;6.126;2023-04-05T15:40:21;27.33;;;25.62;;
12908;SDS011;6522;49.622;6.126;2023-04-05T15:43:08;27.20;;;25.60;;
12908;SDS011;6522;49.622;6.126;2023-04-05T15:45:55;27.17;;;25.33;;
12908;SDS011;6522;49.622;6.126;2023-04-05T15:48:42;26.37;;;24.77;;
12908;SDS011;6522;49.622;6.126;2023-04-05T15:51:29;27.35;;;25.45;;
12908;SDS011;6522;49.622;6.126;2023-04-05T15:54:16;26.00;;;24.50;;
12908;SDS011;6522;49.622;6.126;2023-04-05T15:57:05;26.90;;;24.87;;
12908;SDS011;6522;49.622;6.126;2023-04-05T15:59:52;26.15;;;24.35;;
12908;SDS011;6522;49.622;6.126;2023-04-05T16:02:39;27.20;;;25.35;;
12908;SDS011;6522;49.622;6.126;2023-04-05T16:05:26;23.07;;;21.67;;
12908;SDS011;6522;49.622;6.126;2023-04-05T16:08:13;24.80;;;23.50;;
12908;SDS011;6522;49.622;6.126;2023-04-05T16:11:00;26.00;;;24.20;;
12908;SDS011;6522;49.622;6.126;2023-04-05T16:13:46;25.62;;;24.12;;
12908;SDS011;6522;49.622;6.126;2023-04-05T16:16:33;26.05;;;24.20;;
12908;SDS011;6522;49.622;6.126;2023-04-05T16:19:20;26.35;;;24.55;;
12908;SDS011;6522;49.622;6.126;2023-04-05T16:22:07;24.87;;;23.23;;
12908;SDS011;6522;49.622;6.126;2023-04-05T16:24:54;24.60;;;23.20;;
12908;SDS011;6522;49.622;6.126;2023-04-05T16:27:41;24.98;;;23.55;;
12908;SDS011;6522;49.622;6.126;2023-04-05T16:30:28;24.48;;;22.90;;
12908;SDS011;6522;49.622;6.126;2023-04-05T16:33:15;25.95;;;24.45;;
12908;SDS011;6522;49.622;6.126;2023-04-05T16:36:02;26.35;;;24.55;;
12908;SDS011;6522;49.622;6.126;2023-04-05T16:38:48;20.90;;;19.40;;
12908;SDS011;6522;49.622;6.126;2023-04-05T16:41:36;25.98;;;24.23;;
12908;SDS011;6522;49.622;6.126;2023-04-05T16:44:23;25.33;;;23.87;;
12908;SDS011;6522;49.622;6.126;2023-04-05T16:47:09;25.05;;;23.65;;
12908;SDS011;6522;49.622;6.126;2023-04-05T16:49:56;25.48;;;23.87;;
12908;SDS011;6522;49.622;6.126;2023-04-05T16:52:44;26.52;;;24.90;;